sensor_id;sensor_type;location;lat;lon;timestamp;P1;durP1;ratioP1;P2;durP2;ratioP2
13588;SDS011;6865;52.552;13.434;2023-06-24T00:02:01;12.80;;;11.25;;
13588;SDS011;6865;52.552;13.434;2023-06-24T00:04:28;16.90;;;11.73;;
13588;SDS011;6865;52.552;13.434;2023-06-24T00:06:55;12.52;;;11.23;;
13588;SDS011;6865;52.552;13.434;2023-06-24T00:09:26;12.35;;;10.75;;
13588;SDS011;6865;52.552;13.434;2023-06-24T00:11:54;13.85;;;10.55;;
13588;SDS011;6865;52.552;13.434;2023-06-24T00:14:22;15.73;;;10.80;;
13588;SDS011;6865;52.552;13.434;2023-06-24T00:16:53;13.65;;;11.27;;
13588;SDS011;6865;52.552;13.434;2023-06-24T00:19:21;13.15;;;11.85;;
13588;SDS011;6865;52.552;13.434;2023-06-24T00:21:50;15.68;;;12.95;;
13588;SDS011;6865;52.552;13.434;2023-06-24T00:24:18;14.27;;;11.60;;
13588;SDS011;6865;52.552;13.434;2023-06-24T00:26:46;16.52;;;12.50;;
13588;SDS011;6865;52.552;13.434;2023-06-24T00:29:13;14.48;;;13.07;;
13588;SDS011;6865;52.552;13.434;2023-06-24T00:31:41;13.50;;;12.02;;
13588;SDS011;6865;52.552;13.434;2023-06-24T00:34:08;18.27;;;13.88;;
13588;SDS011;6865;52.552;13.434;2023-06-24T00:36:34;16.35;;;13.02;;
13588;SDS011;6865;52.552;13.434;2023-06-24T00:39:04;19.30;;;13.80;;
13588;SDS011;6865;52.552;13.434;2023-06-24T00:41:35;17.77;;;13.32;;
13588;SDS011;6865;52.552;13.434;2023-06-24T00:44:02;16.88;;;13.60;;
13588;SDS011;6865;52.552;13.434;2023-06-24T00:46:29;16.77;;;12.98;;
13588;SDS011;6865;52.552;13.434;2023-06-24T00:48:58;18.10;;;14.75;;
13588;SDS011;6865;52.552;13.434;2023-06-24T00:51:26;20.63;;;16.25;;
13588;SDS011;6865;52.552;13.434;2023-06-24T00:53:56;20.48;;;16.60;;
13588;SDS011;6865;52.552;13.434;2023-06-24T00:56:31;20.60;;;15.73;;
13588;SDS011;6865;52.552;13.434;2023-06-24T00:59:00;21.10;;;17.90;;
13588;SDS011;6865;52.552;13.434;2023-06-24T01:04:03;19.90;;;17.00;;
13588;SDS011;6865;52.552;13.434;2023-06-24T01:06:30;23.70;;;17.60;;
13588;SDS011;6865;52.552;13.434;2023-06-24T01:08:58;22.83;;;18.73;;
13588;SDS011;6865;52.552;13.434;2023-06-24T01:11:26;22.20;;;18.20;;
13588;SDS011;6865;52.552;13.434;2023-06-24T01:13:54;24.08;;;19.75;;
13588;SDS011;6865;52.552;13.434;2023-06-24T01:16:30;25.65;;;18.27;;
13588;SDS011;6865;52.552;13.434;2023-06-24T01:19:04;22.13;;;18.43;;
13588;SDS011;6865;52.552;13.434;2023-06-24T01:22:07;23.02;;;18.88;;
13588;SDS011;6865;52.552;13.434;2023-06-24T01:25:01;22.58;;;18.27;;
13588;SDS011;6865;52.552;13.434;2023-06-24T01:30:51;25.13;;;18.92;;
13588;SDS011;6865;52.552;13.434;2023-06-24T01:33:43;23.67;;;17.77;;
13588;SDS011;6865;52.552;13.434;2023-06-24T01:36:18;24.30;;;18.52;;
13588;SDS011;6865;52.552;13.434;2023-06-24T01:38:47;24.00;;;17.85;;
13588;SDS011;6865;52.552;13.434;2023-06-24T01:41:19;20.75;;;15.70;;
13588;SDS011;6865;52.552;13.434;2023-06-24T01:43:50;21.38;;;17.92;;
13588;SDS011;6865;52.552;13.434;2023-06-24T01:46:22;24.98;;;17.55;;
13588;SDS011;6865;52.552;13.434;2023-06-24T01:48:52;21.42;;;17.63;;
13588;SDS011;6865;52.552;13.434;2023-06-24T01:51:24;20.10;;;16.38;;
13588;SDS011;6865;52.552;13.434;2023-06-24T01:53:52;22.20;;;17.58;;
13588;SDS011;6865;52.552;13.434;2023-06-24T01:56:22;22.47;;;17.77;;
13588;SDS011;6865;52.552;13.434;2023-06-24T01:58:52;22.27;;;17.80;;
13588;SDS011;6865;52.552;13.434;2023-06-24T02:01:20;17.77;;;15.77;;
13588;SDS011;6865;52.552;13.434;2023-06-24T02:03:48;23.80;;;17.63;;
13588;SDS011;6865;52.552;13.434;2023-06-24T02:06:15;19.05;;;16.20;;
13588;SDS011;6865;52.552;13.434;2023-06-24T02:08:43;20.70;;;16.17;;
13588;SDS011;6865;52.552;13.434;2023-06-24T02:11:14;20.30;;;16.85;;
13588;SDS011;6865;52.552;13.434;2023-06-24T02:13:41;20.25;;;15.95;;
13588;SDS011;6865;52.552;13.434;2023-06-24T02:16:09;22.70;;;18.63;;
13588;SDS011;6865;52.552;13.434;2023-06-24T02:18:37;18.05;;;15.85;;
13588;SDS011;6865;52.552;13.434;2023-06-24T02:21:08;19.92;;;16.25;;
13588;SDS011;6865;52.552;13.434;2023-06-24T02:23:36;18.67;;;16.55;;
13588;SDS011;6865;52.552;13.434;2023-06-24T02:26:04;21.57;;;16.43;;
13588;SDS011;6865;52.552;13.434;2023-06-24T02:28:33;21.93;;;16.40;;
13588;SDS011;6865;52.552;13.434;2023-06-24T02:31:00;17.52;;;15.23;;
13588;SDS011;6865;52.552;13.434;2023-06-24T02:33:28;21.73;;;15.77;;
13588;SDS011;6865;52.552;13.434;2023-06-24T02:35:54;17.60;;;14.20;;
13588;SDS011;6865;52.552;13.434;2023-06-24T02:38:21;20.13;;;15.52;;
13588;SDS011;6865;52.552;13.434;2023-06-24T02:40:48;16.73;;;14.52;;
13588;SDS011;6865;52.552;13.434;2023-06-24T02:43:18;18.37;;;14.57;;
13588;SDS011;6865;52.552;13.434;2023-06-24T02:45:45;17.67;;;14.10;;
13588;SDS011;6865;52.552;13.434;2023-06-24T02:48:14;15.25;;;13.63;;
13588;SDS011;6865;52.552;13.434;2023-06-24T02:50:42;15.53;;;13.23;;
13588;SDS011;6865;52.552;13.434;2023-06-24T02:53:10;20.98;;;14.60;;
13588;SDS011;6865;52.552;13.434;2023-06-24T02:55:38;17.35;;;14.15;;
13588;SDS011;6865;52.552;13.434;2023-06-24T02:58:07;15.17;;;13.10;;
13588;SDS011;6865;52.552;13.434;2023-06-24T03:00:35;14.40;;;12.53;;
13588;SDS011;6865;52.552;13.434;2023-06-24T03:03:03;14.57;;;12.97;;
13588;SDS011;6865;52.552;13.434;2023-06-24T03:05:31;14.07;;;11.67;;
13588;SDS011;6865;52.552;13.434;2023-06-24T03:07:59;16.20;;;13.80;;
13588;SDS011;6865;52.552;13.434;2023-06-24T03:10:27;15.50;;;12.87;;
13588;SDS011;6865;52.552;13.434;2023-06-24T03:12:53;16.67;;;12.30;;
13588;SDS011;6865;52.552;13.434;2023-06-24T03:15:20;18.80;;;12.17;;
13588;SDS011;6865;52.552;13.434;2023-06-24T03:17:47;17.77;;;11.57;;
13588;SDS011;6865;52.552;13.434;2023-06-24T03:20:14;15.80;;;12.40;;
13588;SDS011;6865;52.552;13.434;2023-06-24T03:22:40;15.37;;;12.27;;
13588;SDS011;6865;52.552;13.434;2023-06-24T03:25:07;15.93;;;12.57;;
13588;SDS011;6865;52.552;13.434;2023-06-24T03:27:34;17.60;;;12.13;;
13588;SDS011;6865;52.552;13.434;2023-06-24T03:30:01;15.40;;;12.10;;
13588;SDS011;6865;52.552;13.434;2023-06-24T03:32:27;15.63;;;11.67;;
13588;SDS011;6865;52.552;13.434;2023-06-24T03:34:54;15.90;;;12.87;;
13588;SDS011;6865;52.552;13.434;2023-06-24T03:37:21;14.73;;;12.33;;
13588;SDS011;6865;52.552;13.434;2023-06-24T03:39:48;15.67;;;12.77;;
13588;SDS011;6865;52.552;13.434;2023-06-24T03:42:14;13.43;;;11.60;;
13588;SDS011;6865;52.552;13.434;2023-06-24T03:44:41;14.67;;;11.90;;
13588;SDS011;6865;52.552;13.434;2023-06-24T03:47:07;17.03;;;12.47;;
13588;SDS011;6865;52.552;13.434;2023-06-24T03:49:34;14.20;;;11.70;;
13588;SDS011;6865;52.552;13.434;2023-06-24T03:52:01;14.53;;;11.80;;
13588;SDS011;6865;52.552;13.434;2023-06-24T03:54:28;12.40;;;11.03;;
13588;SDS011;6865;52.552;13.434;2023-06-24T03:56:54;14.75;;;11.80;;
13588;SDS011;6865;52.552;13.434;2023-06-24T03:59:21;12.80;;;11.50;;
13588;SDS011;6865;52.552;13.434;2023-06-24T04:01:48;14.20;;;11.70;;
13588;SDS011;6865;52.552;13.434;2023-06-24T04:04:17;12.43;;;10.75;;
13588;SDS011;6865;52.552;13.434;2023-06-24T04:06:44;13.68;;;11.38;;
13588;SDS011;6865;52.552;13.434;2023-06-24T04:09:11;15.27;;;11.60;;
13588;SDS011;6865;52.552;13.434;2023-06-24T04:11:37;12.23;;;10.60;;
13588;SDS011;6865;52.552;13.434;2023-06-24T04:14:04;12.60;;;11.00;;
13588;SDS011;6865;52.552;13.434;2023-06-24T04:16:33;12.17;;;10.87;;
13588;SDS011;6865;52.552;13.434;2023-06-24T04:18:59;15.00;;;10.83;;
13588;SDS011;6865;52.552;13.434;2023-06-24T04:21:26;16.17;;;11.33;;
13588;SDS011;6865;52.552;13.434;2023-06-24T04:23:53;12.97;;;11.63;;
13588;SDS011;6865;52.552;13.434;2023-06-24T04:26:20;15.90;;;11.70;;
13588;SDS011;6865;52.552;13.434;2023-06-24T04:28:46;14.40;;;11.40;;
13588;SDS011;6865;52.552;13.434;2023-06-24T04:31:13;15.53;;;11.43;;
13588;SDS011;6865;52.552;13.434;2023-06-24T04:33:40;14.17;;;11.33;;
13588;SDS011;6865;52.552;13.434;2023-06-24T04:36:06;19.37;;;14.37;;
13588;SDS011;6865;52.552;13.434;2023-06-24T04:38:33;15.97;;;12.03;;
13588;SDS011;6865;52.552;13.434;2023-06-24T04:41:00;15.40;;;11.47;;
13588;SDS011;6865;52.552;13.434;2023-06-24T04:43:26;18.03;;;12.40;;
13588;SDS011;6865;52.552;13.434;2023-06-24T04:45:56;16.60;;;11.57;;
13588;SDS011;6865;52.552;13.434;2023-06-24T04:48:23;16.10;;;11.77;;
13588;SDS011;6865;52.552;13.434;2023-06-24T04:50:50;16.20;;;12.27;;
13588;SDS011;6865;52.552;13.434;2023-06-24T04:53:19;17.30;;;11.90;;
13588;SDS011;6865;52.552;13.434;2023-06-24T04:55:46;16.93;;;12.43;;
13588;SDS011;6865;52.552;13.434;2023-06-24T04:58:13;14.23;;;11.03;;
13588;SDS011;6865;52.552;13.434;2023-06-24T05:00:40;14.30;;;11.57;;
13588;SDS011;6865;52.552;13.434;2023-06-24T05:03:06;12.93;;;10.43;;
13588;SDS011;6865;52.552;13.434;2023-06-24T05:05:33;13.70;;;11.07;;
13588;SDS011;6865;52.552;13.434;2023-06-24T05:08:01;14.33;;;10.63;;
13588;SDS011;6865;52.552;13.434;2023-06-24T05:10:28;17.03;;;11.60;;
13588;SDS011;6865;52.552;13.434;2023-06-24T05:12:55;12.73;;;10.80;;
13588;SDS011;6865;52.552;13.434;2023-06-24T05:15:21;13.00;;;10.87;;
13588;SDS011;6865;52.552;13.434;2023-06-24T05:17:48;13.87;;;10.90;;
13588;SDS011;6865;52.552;13.434;2023-06-24T05:20:18;13.73;;;11.23;;
13588;SDS011;6865;52.552;13.434;2023-06-24T05:22:45;14.67;;;11.07;;
13588;SDS011;6865;52.552;13.434;2023-06-24T05:25:12;15.07;;;10.67;;
13588;SDS011;6865;52.552;13.434;2023-06-24T05:27:38;16.40;;;10.73;;
13588;SDS011;6865;52.552;13.434;2023-06-24T05:30:05;13.55;;;10.88;;
13588;SDS011;6865;52.552;13.434;2023-06-24T05:32:32;12.88;;;10.55;;
13588;SDS011;6865;52.552;13.434;2023-06-24T05:34:59;12.17;;;10.60;;
13588;SDS011;6865;52.552;13.434;2023-06-24T05:37:26;12.93;;;10.07;;
13588;SDS011;6865;52.552;13.434;2023-06-24T05:39:52;16.38;;;10.57;;
13588;SDS011;6865;52.552;13.434;2023-06-24T05:42:19;12.80;;;10.23;;
13588;SDS011;6865;52.552;13.434;2023-06-24T05:44:46;13.30;;;10.32;;
13588;SDS011;6865;52.552;13.434;2023-06-24T05:47:12;13.55;;;10.27;;
13588;SDS011;6865;52.552;13.434;2023-06-24T05:49:39;10.68;;;9.00;;
13588;SDS011;6865;52.552;13.434;2023-06-24T05:52:06;14.80;;;10.40;;
13588;SDS011;6865;52.552;13.434;2023-06-24T05:54:32;14.48;;;10.20;;
13588;SDS011;6865;52.552;13.434;2023-06-24T05:56:59;13.45;;;10.15;;
13588;SDS011;6865;52.552;13.434;2023-06-24T05:59:26;13.45;;;9.65;;
13588;SDS011;6865;52.552;13.434;2023-06-24T06:01:52;10.23;;;8.90;;
13588;SDS011;6865;52.552;13.434;2023-06-24T06:04:19;12.20;;;9.45;;
13588;SDS011;6865;52.552;13.434;2023-06-24T06:06:46;11.10;;;9.15;;
13588;SDS011;6865;52.552;13.434;2023-06-24T06:09:13;14.63;;;10.38;;
13588;SDS011;6865;52.552;13.434;2023-06-24T06:11:39;11.65;;;8.82;;
13588;SDS011;6865;52.552;13.434;2023-06-24T06:14:06;12.80;;;9.07;;
13588;SDS011;6865;52.552;13.434;2023-06-24T06:16:33;13.13;;;8.65;;
13588;SDS011;6865;52.552;13.434;2023-06-24T06:18:59;11.77;;;8.70;;
13588;SDS011;6865;52.552;13.434;2023-06-24T06:21:26;11.10;;;8.82;;
13588;SDS011;6865;52.552;13.434;2023-06-24T06:23:53;14.10;;;8.95;;
13588;SDS011;6865;52.552;13.434;2023-06-24T06:26:19;10.30;;;8.30;;
13588;SDS011;6865;52.552;13.434;2023-06-24T06:28:47;12.73;;;8.50;;
13588;SDS011;6865;52.552;13.434;2023-06-24T06:31:14;12.07;;;8.80;;
13588;SDS011;6865;52.552;13.434;2023-06-24T06:33:41;11.65;;;8.23;;
13588;SDS011;6865;52.552;13.434;2023-06-24T06:36:08;12.55;;;8.68;;
13588;SDS011;6865;52.552;13.434;2023-06-24T06:38:34;12.55;;;8.57;;
13588;SDS011;6865;52.552;13.434;2023-06-24T06:41:01;12.98;;;8.32;;
13588;SDS011;6865;52.552;13.434;2023-06-24T06:43:28;10.90;;;8.40;;
13588;SDS011;6865;52.552;13.434;2023-06-24T06:45:54;11.55;;;8.93;;
13588;SDS011;6865;52.552;13.434;2023-06-24T06:48:22;10.93;;;8.13;;
13588;SDS011;6865;52.552;13.434;2023-06-24T06:50:49;12.50;;;8.38;;
13588;SDS011;6865;52.552;13.434;2023-06-24T06:53:15;11.88;;;7.78;;
13588;SDS011;6865;52.552;13.434;2023-06-24T06:55:45;14.02;;;8.50;;
13588;SDS011;6865;52.552;13.434;2023-06-24T06:58:12;10.88;;;8.05;;
13588;SDS011;6865;52.552;13.434;2023-06-24T07:00:38;9.70;;;8.20;;
13588;SDS011;6865;52.552;13.434;2023-06-24T07:03:05;12.38;;;8.70;;
13588;SDS011;6865;52.552;13.434;2023-06-24T07:05:32;11.20;;;7.82;;
13588;SDS011;6865;52.552;13.434;2023-06-24T07:08:05;12.52;;;8.52;;
13588;SDS011;6865;52.552;13.434;2023-06-24T07:10:32;10.40;;;8.20;;
13588;SDS011;6865;52.552;13.434;2023-06-24T07:12:58;11.13;;;8.23;;
13588;SDS011;6865;52.552;13.434;2023-06-24T07:15:25;11.98;;;8.30;;
13588;SDS011;6865;52.552;13.434;2023-06-24T07:17:52;10.27;;;7.65;;
13588;SDS011;6865;52.552;13.434;2023-06-24T07:20:20;11.15;;;8.43;;
13588;SDS011;6865;52.552;13.434;2023-06-24T07:22:47;9.52;;;7.35;;
13588;SDS011;6865;52.552;13.434;2023-06-24T07:25:14;10.10;;;7.25;;
13588;SDS011;6865;52.552;13.434;2023-06-24T07:27:41;9.75;;;7.65;;
13588;SDS011;6865;52.552;13.434;2023-06-24T07:30:08;8.48;;;7.25;;
13588;SDS011;6865;52.552;13.434;2023-06-24T07:32:35;8.40;;;6.95;;
13588;SDS011;6865;52.552;13.434;2023-06-24T07:35:01;8.05;;;7.03;;
13588;SDS011;6865;52.552;13.434;2023-06-24T07:37:28;11.25;;;7.05;;
13588;SDS011;6865;52.552;13.434;2023-06-24T07:39:55;9.48;;;6.35;;
13588;SDS011;6865;52.552;13.434;2023-06-24T07:42:21;9.07;;;6.55;;
13588;SDS011;6865;52.552;13.434;2023-06-24T07:44:48;9.52;;;5.72;;
13588;SDS011;6865;52.552;13.434;2023-06-24T07:47:16;7.18;;;5.97;;
13588;SDS011;6865;52.552;13.434;2023-06-24T07:49:44;6.45;;;5.25;;
13588;SDS011;6865;52.552;13.434;2023-06-24T07:52:11;10.30;;;5.72;;
13588;SDS011;6865;52.552;13.434;2023-06-24T07:54:37;9.13;;;5.10;;
13588;SDS011;6865;52.552;13.434;2023-06-24T07:57:04;12.20;;;6.00;;
13588;SDS011;6865;52.552;13.434;2023-06-24T07:59:31;5.65;;;5.05;;
13588;SDS011;6865;52.552;13.434;2023-06-24T08:01:58;6.70;;;5.18;;
13588;SDS011;6865;52.552;13.434;2023-06-24T08:04:24;6.07;;;5.47;;
13588;SDS011;6865;52.552;13.434;2023-06-24T08:06:51;6.32;;;5.57;;
13588;SDS011;6865;52.552;13.434;2023-06-24T08:09:18;7.78;;;5.53;;
13588;SDS011;6865;52.552;13.434;2023-06-24T08:11:45;6.90;;;5.80;;
13588;SDS011;6865;52.552;13.434;2023-06-24T08:14:12;6.43;;;5.07;;
13588;SDS011;6865;52.552;13.434;2023-06-24T08:16:38;7.72;;;5.55;;
13588;SDS011;6865;52.552;13.434;2023-06-24T08:19:05;7.30;;;5.70;;
13588;SDS011;6865;52.552;13.434;2023-06-24T08:21:32;6.35;;;5.18;;
13588;SDS011;6865;52.552;13.434;2023-06-24T08:24:00;6.00;;;5.35;;
13588;SDS011;6865;52.552;13.434;2023-06-24T08:26:27;5.35;;;4.85;;
13588;SDS011;6865;52.552;13.434;2023-06-24T08:28:53;5.75;;;4.80;;
13588;SDS011;6865;52.552;13.434;2023-06-24T08:31:20;7.25;;;5.75;;
13588;SDS011;6865;52.552;13.434;2023-06-24T08:33:49;8.07;;;5.15;;
13588;SDS011;6865;52.552;13.434;2023-06-24T08:36:23;8.55;;;5.30;;
13588;SDS011;6865;52.552;13.434;2023-06-24T08:38:50;5.80;;;5.18;;
13588;SDS011;6865;52.552;13.434;2023-06-24T08:41:16;5.90;;;5.13;;
13588;SDS011;6865;52.552;13.434;2023-06-24T08:43:43;10.60;;;5.90;;
13588;SDS011;6865;52.552;13.434;2023-06-24T08:46:11;7.10;;;5.53;;
13588;SDS011;6865;52.552;13.434;2023-06-24T08:48:42;6.90;;;5.30;;
13588;SDS011;6865;52.552;13.434;2023-06-24T08:51:11;6.10;;;5.05;;
13588;SDS011;6865;52.552;13.434;2023-06-24T08:53:42;5.43;;;4.63;;
13588;SDS011;6865;52.552;13.434;2023-06-24T08:56:13;6.32;;;4.97;;
13588;SDS011;6865;52.552;13.434;2023-06-24T08:58:40;8.95;;;6.63;;
13588;SDS011;6865;52.552;13.434;2023-06-24T09:01:07;7.88;;;4.82;;
13588;SDS011;6865;52.552;13.434;2023-06-24T09:03:34;6.10;;;4.60;;
13588;SDS011;6865;52.552;13.434;2023-06-24T09:06:02;5.85;;;4.90;;
13588;SDS011;6865;52.552;13.434;2023-06-24T09:08:28;8.63;;;5.00;;
13588;SDS011;6865;52.552;13.434;2023-06-24T09:10:55;5.47;;;4.57;;
13588;SDS011;6865;52.552;13.434;2023-06-24T09:13:27;6.75;;;4.68;;
13588;SDS011;6865;52.552;13.434;2023-06-24T09:16:07;7.53;;;4.90;;
13588;SDS011;6865;52.552;13.434;2023-06-24T09:18:41;5.60;;;4.95;;
13588;SDS011;6865;52.552;13.434;2023-06-24T09:21:13;9.13;;;5.20;;
13588;SDS011;6865;52.552;13.434;2023-06-24T09:23:39;6.60;;;5.30;;
13588;SDS011;6865;52.552;13.434;2023-06-24T09:26:09;8.52;;;5.20;;
13588;SDS011;6865;52.552;13.434;2023-06-24T09:28:37;5.55;;;4.90;;
13588;SDS011;6865;52.552;13.434;2023-06-24T09:31:07;9.65;;;5.10;;
13588;SDS011;6865;52.552;13.434;2023-06-24T09:33:45;10.63;;;5.03;;
13588;SDS011;6865;52.552;13.434;2023-06-24T09:36:13;5.30;;;4.80;;
13588;SDS011;6865;52.552;13.434;2023-06-24T09:38:41;6.97;;;5.32;;
13588;SDS011;6865;52.552;13.434;2023-06-24T09:41:10;6.88;;;5.15;;
13588;SDS011;6865;52.552;13.434;2023-06-24T09:43:40;7.28;;;5.22;;
13588;SDS011;6865;52.552;13.434;2023-06-24T09:46:10;6.95;;;4.97;;
13588;SDS011;6865;52.552;13.434;2023-06-24T09:48:38;7.60;;;4.97;;
13588;SDS011;6865;52.552;13.434;2023-06-24T09:51:05;7.97;;;5.00;;
13588;SDS011;6865;52.552;13.434;2023-06-24T09:53:33;8.43;;;5.45;;
13588;SDS011;6865;52.552;13.434;2023-06-24T09:56:01;5.00;;;4.50;;
13588;SDS011;6865;52.552;13.434;2023-06-24T09:58:36;7.53;;;5.00;;
13588;SDS011;6865;52.552;13.434;2023-06-24T10:01:04;6.88;;;5.03;;
13588;SDS011;6865;52.552;13.434;2023-06-24T10:03:33;4.53;;;4.10;;
13588;SDS011;6865;52.552;13.434;2023-06-24T10:06:03;5.93;;;4.57;;
13588;SDS011;6865;52.552;13.434;2023-06-24T10:08:30;6.30;;;4.65;;
13588;SDS011;6865;52.552;13.434;2023-06-24T10:11:01;4.88;;;4.13;;
13588;SDS011;6865;52.552;13.434;2023-06-24T10:13:29;5.55;;;4.50;;
13588;SDS011;6865;52.552;13.434;2023-06-24T10:15:56;4.68;;;4.28;;
13588;SDS011;6865;52.552;13.434;2023-06-24T10:18:43;6.80;;;4.53;;
13588;SDS011;6865;52.552;13.434;2023-06-24T10:21:11;5.57;;;4.45;;
13588;SDS011;6865;52.552;13.434;2023-06-24T10:26:21;4.60;;;4.05;;
13588;SDS011;6865;52.552;13.434;2023-06-24T10:36:56;5.00;;;4.32;;
13588;SDS011;6865;52.552;13.434;2023-06-24T10:39:36;4.85;;;4.32;;
13588;SDS011;6865;52.552;13.434;2023-06-24T10:44:53;6.38;;;4.20;;
13588;SDS011;6865;52.552;13.434;2023-06-24T10:47:22;4.88;;;3.90;;
13588;SDS011;6865;52.552;13.434;2023-06-24T10:49:50;6.25;;;4.30;;
13588;SDS011;6865;52.552;13.434;2023-06-24T10:52:20;7.65;;;4.97;;
13588;SDS011;6865;52.552;13.434;2023-06-24T10:54:49;8.15;;;4.75;;
13588;SDS011;6865;52.552;13.434;2023-06-24T10:57:21;5.45;;;4.93;;
13588;SDS011;6865;52.552;13.434;2023-06-24T10:59:49;6.80;;;4.43;;
13588;SDS011;6865;52.552;13.434;2023-06-24T11:02:17;6.00;;;5.40;;
13588;SDS011;6865;52.552;13.434;2023-06-24T11:04:49;5.50;;;4.60;;
13588;SDS011;6865;52.552;13.434;2023-06-24T11:07:17;6.05;;;4.60;;
13588;SDS011;6865;52.552;13.434;2023-06-24T11:09:52;4.45;;;4.05;;
13588;SDS011;6865;52.552;13.434;2023-06-24T11:12:24;5.95;;;3.90;;
13588;SDS011;6865;52.552;13.434;2023-06-24T11:14:56;7.35;;;4.70;;
13588;SDS011;6865;52.552;13.434;2023-06-24T11:17:24;8.07;;;4.93;;
13588;SDS011;6865;52.552;13.434;2023-06-24T11:19:52;5.13;;;4.63;;
13588;SDS011;6865;52.552;13.434;2023-06-24T11:22:19;7.45;;;4.60;;
13588;SDS011;6865;52.552;13.434;2023-06-24T11:24:46;6.35;;;4.50;;
13588;SDS011;6865;52.552;13.434;2023-06-24T11:27:13;5.88;;;5.13;;
13588;SDS011;6865;52.552;13.434;2023-06-24T11:29:40;20.40;;;5.40;;
13588;SDS011;6865;52.552;13.434;2023-06-24T11:32:08;5.90;;;4.28;;
13588;SDS011;6865;52.552;13.434;2023-06-24T11:34:35;5.47;;;4.70;;
13588;SDS011;6865;52.552;13.434;2023-06-24T11:37:14;9.85;;;4.47;;
13588;SDS011;6865;52.552;13.434;2023-06-24T11:39:43;7.90;;;4.75;;
13588;SDS011;6865;52.552;13.434;2023-06-24T11:42:10;7.63;;;4.60;;
13588;SDS011;6865;52.552;13.434;2023-06-24T11:44:41;6.25;;;4.63;;
13588;SDS011;6865;52.552;13.434;2023-06-24T11:47:11;5.70;;;4.20;;
13588;SDS011;6865;52.552;13.434;2023-06-24T11:49:48;5.35;;;4.70;;
13588;SDS011;6865;52.552;13.434;2023-06-24T11:52:19;4.30;;;3.90;;
13588;SDS011;6865;52.552;13.434;2023-06-24T11:54:58;4.65;;;4.10;;
13588;SDS011;6865;52.552;13.434;2023-06-24T12:00:24;7.53;;;4.40;;
13588;SDS011;6865;52.552;13.434;2023-06-24T12:02:56;8.45;;;4.28;;
13588;SDS011;6865;52.552;13.434;2023-06-24T12:05:26;4.82;;;4.28;;
13588;SDS011;6865;52.552;13.434;2023-06-24T12:07:58;5.57;;;4.00;;
13588;SDS011;6865;52.552;13.434;2023-06-24T12:10:29;6.65;;;4.18;;
13588;SDS011;6865;52.552;13.434;2023-06-24T12:13:00;5.32;;;4.30;;
13588;SDS011;6865;52.552;13.434;2023-06-24T12:15:28;4.93;;;3.92;;
13588;SDS011;6865;52.552;13.434;2023-06-24T12:17:54;5.68;;;3.90;;
13588;SDS011;6865;52.552;13.434;2023-06-24T12:20:21;5.05;;;4.50;;
13588;SDS011;6865;52.552;13.434;2023-06-24T12:22:53;3.92;;;3.47;;
13588;SDS011;6865;52.552;13.434;2023-06-24T12:25:20;3.90;;;3.50;;
13588;SDS011;6865;52.552;13.434;2023-06-24T12:27:47;7.07;;;3.35;;
13588;SDS011;6865;52.552;13.434;2023-06-24T12:30:14;5.28;;;4.03;;
13588;SDS011;6865;52.552;13.434;2023-06-24T12:32:42;4.20;;;3.55;;
13588;SDS011;6865;52.552;13.434;2023-06-24T12:35:10;3.95;;;3.55;;
13588;SDS011;6865;52.552;13.434;2023-06-24T12:37:37;7.40;;;3.83;;
13588;SDS011;6865;52.552;13.434;2023-06-24T12:40:04;4.70;;;3.85;;
13588;SDS011;6865;52.552;13.434;2023-06-24T12:42:31;9.05;;;4.45;;
13588;SDS011;6865;52.552;13.434;2023-06-24T12:44:58;4.32;;;3.92;;
13588;SDS011;6865;52.552;13.434;2023-06-24T12:47:26;6.90;;;3.85;;
13588;SDS011;6865;52.552;13.434;2023-06-24T12:49:53;5.03;;;4.50;;
13588;SDS011;6865;52.552;13.434;2023-06-24T12:52:19;6.45;;;4.03;;
13588;SDS011;6865;52.552;13.434;2023-06-24T12:54:46;7.65;;;4.68;;
13588;SDS011;6865;52.552;13.434;2023-06-24T12:57:14;5.57;;;4.40;;
13588;SDS011;6865;52.552;13.434;2023-06-24T12:59:41;5.78;;;4.43;;
13588;SDS011;6865;52.552;13.434;2023-06-24T13:02:08;5.68;;;4.80;;
13588;SDS011;6865;52.552;13.434;2023-06-24T13:04:35;8.40;;;4.22;;
13588;SDS011;6865;52.552;13.434;2023-06-24T13:07:02;7.80;;;4.40;;
13588;SDS011;6865;52.552;13.434;2023-06-24T13:09:29;6.18;;;4.30;;
13588;SDS011;6865;52.552;13.434;2023-06-24T13:11:56;5.20;;;4.57;;
13588;SDS011;6865;52.552;13.434;2023-06-24T13:14:23;5.53;;;4.40;;
13588;SDS011;6865;52.552;13.434;2023-06-24T13:16:53;5.55;;;4.70;;
13588;SDS011;6865;52.552;13.434;2023-06-24T13:19:20;4.38;;;3.97;;
13588;SDS011;6865;52.552;13.434;2023-06-24T13:21:47;4.45;;;3.70;;
13588;SDS011;6865;52.552;13.434;2023-06-24T13:24:13;5.43;;;4.00;;
13588;SDS011;6865;52.552;13.434;2023-06-24T13:26:40;7.10;;;4.07;;
13588;SDS011;6865;52.552;13.434;2023-06-24T13:29:07;7.32;;;4.30;;
13588;SDS011;6865;52.552;13.434;2023-06-24T13:31:34;7.03;;;4.47;;
13588;SDS011;6865;52.552;13.434;2023-06-24T13:34:01;6.03;;;4.30;;
13588;SDS011;6865;52.552;13.434;2023-06-24T13:36:29;7.28;;;4.53;;
13588;SDS011;6865;52.552;13.434;2023-06-24T13:39:02;4.88;;;4.25;;
13588;SDS011;6865;52.552;13.434;2023-06-24T13:41:30;6.35;;;4.57;;
13588;SDS011;6865;52.552;13.434;2023-06-24T13:43:59;6.20;;;4.32;;
13588;SDS011;6865;52.552;13.434;2023-06-24T13:46:26;4.95;;;4.45;;
13588;SDS011;6865;52.552;13.434;2023-06-24T13:48:54;5.05;;;4.18;;
13588;SDS011;6865;52.552;13.434;2023-06-24T13:51:21;5.45;;;4.20;;
13588;SDS011;6865;52.552;13.434;2023-06-24T13:53:49;4.78;;;4.28;;
13588;SDS011;6865;52.552;13.434;2023-06-24T13:56:21;5.88;;;4.43;;
13588;SDS011;6865;52.552;13.434;2023-06-24T13:58:49;4.53;;;4.05;;
13588;SDS011;6865;52.552;13.434;2023-06-24T14:01:16;5.97;;;4.47;;
13588;SDS011;6865;52.552;13.434;2023-06-24T14:03:43;4.90;;;4.40;;
13588;SDS011;6865;52.552;13.434;2023-06-24T14:06:13;5.88;;;4.28;;
13588;SDS011;6865;52.552;13.434;2023-06-24T14:08:41;7.85;;;4.47;;
13588;SDS011;6865;52.552;13.434;2023-06-24T14:11:08;7.20;;;4.60;;
13588;SDS011;6865;52.552;13.434;2023-06-24T14:13:35;5.93;;;4.40;;
13588;SDS011;6865;52.552;13.434;2023-06-24T14:16:03;5.47;;;4.45;;
13588;SDS011;6865;52.552;13.434;2023-06-24T14:18:30;6.82;;;4.63;;
13588;SDS011;6865;52.552;13.434;2023-06-24T14:21:01;6.82;;;4.43;;
13588;SDS011;6865;52.552;13.434;2023-06-24T14:23:29;4.97;;;4.32;;
13588;SDS011;6865;52.552;13.434;2023-06-24T14:25:56;6.82;;;4.43;;
13588;SDS011;6865;52.552;13.434;2023-06-24T14:28:24;6.07;;;4.45;;
13588;SDS011;6865;52.552;13.434;2023-06-24T14:30:51;5.30;;;4.20;;
13588;SDS011;6865;52.552;13.434;2023-06-24T14:33:17;4.55;;;4.13;;
13588;SDS011;6865;52.552;13.434;2023-06-24T14:35:44;5.35;;;4.85;;
13588;SDS011;6865;52.552;13.434;2023-06-24T14:38:11;5.85;;;4.20;;
13588;SDS011;6865;52.552;13.434;2023-06-24T14:40:38;6.43;;;4.80;;
13588;SDS011;6865;52.552;13.434;2023-06-24T14:43:04;5.55;;;4.70;;
13588;SDS011;6865;52.552;13.434;2023-06-24T14:45:31;4.80;;;4.40;;
13588;SDS011;6865;52.552;13.434;2023-06-24T14:47:58;5.47;;;4.60;;
13588;SDS011;6865;52.552;13.434;2023-06-24T14:50:25;5.00;;;4.15;;
13588;SDS011;6865;52.552;13.434;2023-06-24T14:52:52;5.57;;;4.40;;
13588;SDS011;6865;52.552;13.434;2023-06-24T14:55:19;5.10;;;4.20;;
13588;SDS011;6865;52.552;13.434;2023-06-24T14:57:45;6.05;;;4.43;;
13588;SDS011;6865;52.552;13.434;2023-06-24T15:00:12;4.90;;;4.40;;
13588;SDS011;6865;52.552;13.434;2023-06-24T15:02:39;5.18;;;4.65;;
13588;SDS011;6865;52.552;13.434;2023-06-24T15:05:06;5.13;;;4.20;;